createdAt,value
2024-01-16T00:01:15.607Z,83.99
2024-01-16T00:03:42.310Z,84.14
2024-01-16T00:06:08.958Z,84.39
2024-01-16T00:08:35.693Z,84.20
2024-01-16T00:11:03.328Z,84.37
2024-01-16T00:13:29.931Z,85.04
2024-01-16T00:15:56.689Z,85.02
2024-01-16T00:18:24.944Z,85.47
2024-01-16T00:20:51.877Z,85.14
2024-01-16T00:23:18.805Z,85.77
2024-01-16T00:25:45.618Z,85.17
2024-01-16T00:28:12.311Z,85.45
2024-01-16T00:30:39.424Z,85.54
2024-01-16T00:33:06.144Z,85.74
2024-01-16T00:35:34.270Z,85.68
2024-01-16T00:38:00.912Z,85.86
2024-01-16T00:40:27.486Z,85.76
2024-01-16T00:42:54.153Z,86.55
2024-01-16T00:45:21.110Z,85.82
2024-01-16T00:47:47.817Z,86.11
2024-01-16T00:50:14.841Z,86.60
2024-01-16T00:52:43.219Z,87.05
2024-01-16T00:55:10.048Z,87.55
2024-01-16T00:57:36.689Z,87.41
2024-01-16T01:00:04.092Z,87.07
2024-01-16T01:02:30.726Z,87.47
2024-01-16T01:04:57.422Z,87.59
2024-01-16T01:07:24.286Z,87.61
2024-01-16T01:09:52.325Z,87.33
2024-01-16T01:12:19.018Z,87.60
2024-01-16T01:14:46.050Z,87.25
2024-01-16T01:17:12.902Z,87.42
2024-01-16T01:19:39.623Z,88.01
2024-01-16T01:22:06.238Z,87.64
2024-01-16T01:24:32.962Z,87.61
2024-01-16T01:27:01.450Z,87.93
2024-01-16T01:29:28.065Z,87.68
2024-01-16T01:31:54.760Z,87.82
2024-01-16T01:34:21.711Z,87.93
2024-01-16T01:36:48.551Z,87.29
2024-01-16T01:39:15.309Z,87.57
2024-01-16T01:41:42.019Z,87.45
2024-01-16T01:44:10.092Z,87.51
2024-01-16T01:46:37.095Z,87.75
2024-01-16T01:49:04.304Z,87.27
2024-01-16T01:51:31.816Z,87.01
2024-01-16T01:53:59.048Z,87.49
2024-01-16T01:56:26.012Z,86.95
2024-01-16T01:58:57.571Z,87.02
2024-01-16T02:01:28.493Z,86.93
2024-01-16T02:03:56.293Z,87.22
2024-01-16T02:06:23.112Z,87.34
2024-01-16T02:08:50.350Z,87.52
2024-01-16T02:11:17.348Z,88.06
2024-01-16T02:13:44.004Z,87.93
2024-01-16T02:16:18.952Z,87.98
2024-01-16T02:18:47.099Z,87.56
2024-01-16T02:21:18.361Z,87.36
2024-01-16T02:23:46.690Z,87.06
2024-01-16T02:26:14.908Z,87.20
2024-01-16T02:28:41.471Z,86.97
2024-01-16T02:31:08.420Z,87.29
2024-01-16T02:33:35.353Z,87.40
2024-01-16T02:36:02.071Z,87.26
2024-01-16T02:38:30.876Z,86.68
2024-01-16T02:40:58.856Z,86.73
2024-01-16T02:43:25.514Z,86.27
2024-01-16T02:45:52.205Z,86.29
2024-01-16T02:48:18.923Z,86.16
2024-01-16T02:50:45.788Z,86.14
2024-01-16T02:53:12.691Z,86.17
2024-01-16T02:55:39.375Z,86.38
2024-01-16T02:58:07.347Z,86.11
2024-01-16T03:00:34.126Z,85.80
2024-01-16T03:03:01.370Z,85.73
2024-01-16T03:05:28.225Z,86.35
2024-01-16T03:07:55.238Z,86.13
2024-01-16T03:10:21.897Z,86.03
2024-01-16T03:12:48.558Z,86.11
2024-01-16T03:15:16.514Z,86.18
2024-01-16T03:17:43.247Z,86.02
2024-01-16T03:20:10.728Z,86.17
2024-01-16T03:22:37.410Z,86.19
2024-01-16T03:25:04.459Z,85.86
2024-01-16T03:27:31.062Z,85.84
2024-01-16T03:29:57.721Z,86.24
2024-01-16T03:32:25.856Z,86.34
2024-01-16T03:34:52.641Z,86.11
2024-01-16T03:37:19.392Z,86.43
2024-01-16T03:39:46.158Z,86.47
2024-01-16T03:42:12.830Z,86.58
2024-01-16T03:44:40.037Z,87.35
2024-01-16T03:47:07.096Z,87.02
2024-01-16T03:49:35.484Z,86.90
2024-01-16T03:52:02.114Z,86.95
2024-01-16T03:54:28.775Z,86.86
2024-01-16T03:56:55.487Z,86.87
2024-01-16T03:59:22.165Z,87.10
2024-01-16T04:01:48.957Z,87.06
2024-01-16T04:04:15.856Z,87.51
2024-01-16T04:06:44.066Z,87.37
2024-01-16T04:09:10.771Z,87.35
2024-01-16T04:11:37.566Z,87.26
2024-01-16T04:14:04.234Z,87.89
2024-01-16T04:16:30.838Z,87.43
2024-01-16T04:18:58.079Z,87.92
2024-01-16T04:21:24.750Z,88.16
2024-01-16T04:23:52.874Z,87.86
2024-01-16T04:26:19.809Z,87.68
2024-01-16T04:28:46.536Z,87.51
2024-01-16T04:31:13.468Z,87.49
2024-01-16T04:33:41.200Z,87.55
2024-01-16T04:36:08.316Z,87.68
2024-01-16T04:38:34.974Z,87.88
2024-01-16T04:41:03.809Z,87.95
2024-01-16T04:43:31.011Z,87.67
2024-01-16T04:45:59.272Z,88.32
2024-01-16T04:48:27.854Z,87.80
2024-01-16T04:50:54.701Z,88.06
2024-01-16T04:53:21.632Z,87.75
2024-01-16T04:55:48.702Z,87.27
2024-01-16T04:58:16.689Z,87.24
2024-01-16T05:00:43.342Z,86.91
2024-01-16T05:03:09.965Z,87.05
2024-01-16T05:05:36.686Z,86.59
2024-01-16T05:08:03.892Z,86.64
2024-01-16T05:10:30.575Z,86.37
2024-01-16T05:12:57.676Z,86.33
2024-01-16T05:15:26.100Z,85.76
2024-01-16T05:17:53.173Z,86.06
2024-01-16T05:20:20.348Z,86.27
2024-01-16T05:22:46.918Z,85.99
2024-01-16T05:25:13.557Z,85.74
2024-01-16T05:27:40.259Z,85.12
2024-01-16T05:30:07.582Z,85.70
2024-01-16T05:32:36.115Z,85.26
2024-01-16T05:35:02.876Z,85.13
2024-01-16T05:37:29.459Z,85.32
2024-01-16T05:39:56.139Z,86.04
2024-01-16T05:42:22.840Z,86.19
2024-01-16T05:44:49.731Z,86.04
2024-01-16T05:47:16.535Z,86.49
2024-01-16T05:49:44.691Z,86.18
2024-01-16T05:52:11.354Z,86.56
2024-01-16T05:54:37.979Z,86.04
2024-01-16T05:57:04.993Z,86.44
2024-01-16T05:59:31.727Z,86.21
2024-01-16T06:01:58.349Z,87.06
2024-01-16T06:04:25.033Z,86.75
2024-01-16T06:06:53.218Z,87.16
2024-01-16T06:09:19.903Z,87.21
2024-01-16T06:11:46.734Z,86.45
2024-01-16T06:14:13.699Z,86.35
2024-01-16T06:16:40.400Z,86.35
2024-01-16T06:19:07.139Z,86.52
2024-01-16T06:21:33.792Z,86.18
2024-01-16T06:24:02.170Z,86.24
2024-01-16T06:26:28.828Z,86.83
2024-01-16T06:28:55.413Z,87.03
2024-01-16T06:31:22.106Z,86.80
2024-01-16T06:33:48.992Z,87.24
2024-01-16T06:36:15.657Z,87.17
2024-01-16T06:38:42.370Z,87.51
2024-01-16T06:41:10.509Z,87.68
2024-01-16T06:43:37.205Z,87.60
2024-01-16T06:46:03.983Z,87.35
2024-01-16T06:48:30.884Z,87.20
2024-01-16T06:50:57.763Z,87.85
2024-01-16T06:53:24.482Z,87.57
2024-01-16T06:55:51.127Z,87.58
2024-01-16T06:58:19.198Z,87.01
2024-01-16T07:00:47.549Z,86.95
2024-01-16T07:03:14.501Z,87.03
2024-01-16T07:05:41.382Z,86.75
2024-01-16T07:08:08.603Z,86.73
2024-01-16T07:10:35.934Z,87.13
2024-01-16T07:13:03.778Z,86.87
2024-01-16T07:15:31.794Z,87.11
2024-01-16T07:17:58.559Z,87.47
2024-01-16T07:20:25.420Z,86.94
2024-01-16T07:22:52.037Z,87.27
2024-01-16T07:25:18.707Z,87.33
2024-01-16T07:27:45.563Z,87.60
2024-01-16T07:30:13.222Z,88.43
2024-01-16T07:32:41.752Z,88.53
2024-01-16T07:35:09.160Z,88.89
2024-01-16T07:37:35.777Z,88.76
2024-01-16T07:40:02.521Z,88.59
2024-01-16T07:42:31.028Z,88.81
2024-01-16T07:44:58.041Z,89.10
2024-01-16T07:47:24.810Z,89.26
2024-01-16T07:49:52.836Z,89.42
2024-01-16T07:52:19.447Z,89.58
2024-01-16T07:54:46.441Z,89.38
2024-01-16T07:57:13.223Z,89.39
2024-01-16T07:59:40.010Z,89.21
2024-01-16T08:02:06.876Z,89.14
2024-01-16T08:04:33.534Z,88.88
2024-01-16T08:07:01.523Z,89.38
2024-01-16T08:09:28.200Z,89.12
2024-01-16T08:11:54.976Z,89.25
2024-01-16T08:14:21.779Z,89.03
2024-01-16T08:16:48.441Z,89.04
2024-01-16T08:19:15.201Z,88.75
2024-01-16T08:21:41.924Z,88.58
2024-01-16T08:24:10.015Z,88.56
2024-01-16T08:26:36.691Z,87.97
2024-01-16T08:29:03.341Z,88.35
2024-01-16T08:31:30.026Z,88.13
2024-01-16T08:33:56.929Z,88.29
2024-01-16T08:36:23.811Z,88.22
2024-01-16T08:38:50.542Z,88.43
2024-01-16T08:41:18.720Z,88.41
2024-01-16T08:43:45.379Z,88.32
2024-01-16T08:46:12.140Z,87.80
2024-01-16T08:48:38.899Z,88.06
2024-01-16T08:51:12.130Z,87.81
2024-01-16T08:53:38.903Z,88.20
2024-01-16T08:56:05.794Z,88.34
2024-01-16T08:58:33.977Z,88.10
2024-01-16T09:01:00.580Z,87.72
2024-01-16T09:03:27.254Z,87.67
2024-01-16T09:05:54.004Z,87.62
2024-01-16T09:08:20.744Z,88.18
2024-01-16T09:10:47.368Z,87.48
2024-01-16T09:13:14.559Z,87.23
2024-01-16T09:15:42.727Z,87.41
2024-01-16T09:18:09.544Z,86.90
2024-01-16T09:20:36.709Z,86.36
2024-01-16T09:23:03.961Z,85.93
2024-01-16T09:25:30.539Z,85.83
2024-01-16T09:27:57.228Z,85.41
2024-01-16T09:30:23.989Z,85.37
2024-01-16T09:32:52.700Z,85.43
2024-01-16T09:35:19.689Z,85.29
2024-01-16T09:37:46.552Z,84.84
2024-01-16T09:40:13.359Z,84.27
2024-01-16T09:42:40.020Z,84.49
2024-01-16T09:45:07.910Z,84.07
2024-01-16T09:47:35.391Z,82.95
2024-01-16T09:50:04.525Z,82.65
2024-01-16T09:52:31.214Z,82.72
2024-01-16T09:54:57.931Z,82.42
2024-01-16T09:57:27.431Z,81.95
2024-01-16T09:59:54.363Z,81.66
2024-01-16T10:02:21.616Z,81.17
2024-01-16T10:04:48.417Z,80.28
2024-01-16T10:07:17.941Z,80.62
2024-01-16T10:09:44.801Z,79.87
2024-01-16T10:12:12.164Z,79.24
2024-01-16T10:14:40.149Z,78.87
2024-01-16T10:17:07.599Z,77.85
2024-01-16T10:19:43.439Z,77.58
2024-01-16T10:22:25.433Z,76.81
2024-01-16T10:25:05.770Z,76.27
2024-01-16T10:27:32.531Z,76.52
2024-01-16T10:29:59.748Z,76.42
2024-01-16T10:32:30.291Z,76.72
2024-01-16T10:35:05.305Z,76.57
2024-01-16T10:37:41.908Z,76.45
2024-01-16T10:40:09.339Z,76.11
2024-01-16T10:42:36.070Z,75.97
2024-01-16T10:45:02.772Z,76.04
2024-01-16T10:47:29.519Z,76.11
2024-01-16T10:49:56.273Z,76.33
2024-01-16T10:52:29.000Z,75.75
2024-01-16T10:55:01.105Z,76.19
2024-01-16T10:57:30.749Z,75.71
2024-01-16T11:00:03.403Z,75.87
2024-01-16T11:02:35.970Z,75.92
2024-01-16T11:05:04.082Z,75.75
2024-01-16T11:07:31.197Z,75.68
2024-01-16T11:09:59.737Z,75.76
2024-01-16T11:12:27.894Z,76.17
2024-01-16T11:14:55.490Z,76.01
2024-01-16T11:17:23.504Z,76.47
2024-01-16T11:22:22.551Z,76.85
2024-01-16T11:25:08.803Z,76.56
2024-01-16T11:27:36.142Z,77.02
2024-01-16T11:30:02.924Z,77.11
2024-01-16T11:32:39.223Z,77.18
2024-01-16T11:35:06.991Z,77.50
2024-01-16T11:37:34.727Z,77.67
2024-01-16T11:40:25.526Z,77.89
2024-01-16T11:42:54.070Z,78.11
2024-01-16T11:45:51.115Z,78.15
2024-01-16T11:48:18.621Z,78.66
2024-01-16T11:50:45.825Z,78.32
2024-01-16T11:53:32.157Z,78.38
2024-01-16T11:56:13.268Z,77.84
2024-01-16T11:58:49.252Z,78.22
2024-01-16T12:01:16.635Z,78.16
2024-01-16T12:03:43.362Z,78.58
2024-01-16T12:06:10.139Z,78.75
2024-01-16T12:08:36.935Z,77.73
2024-01-16T12:11:05.311Z,78.09
2024-01-16T12:13:32.596Z,77.98
2024-01-16T12:16:03.206Z,77.71
2024-01-16T12:18:38.672Z,77.88
2024-01-16T12:21:09.819Z,77.76
2024-01-16T12:23:36.725Z,77.88
2024-01-16T12:26:05.075Z,77.54
2024-01-16T12:28:33.457Z,78.43
2024-01-16T12:31:01.952Z,78.74
2024-01-16T12:33:29.352Z,78.47
2024-01-16T12:36:02.798Z,78.39
2024-01-16T12:38:29.577Z,78.11
2024-01-16T12:40:56.465Z,78.42
2024-01-16T12:43:24.559Z,78.59
2024-01-16T12:45:56.290Z,78.64
2024-01-16T12:48:24.275Z,77.87
2024-01-16T12:50:51.180Z,78.12
2024-01-16T12:53:18.023Z,77.51
2024-01-16T12:55:44.742Z,77.52
2024-01-16T12:58:18.609Z,77.44
2024-01-16T13:00:47.897Z,77.10
2024-01-16T13:03:18.498Z,77.29
2024-01-16T13:05:46.195Z,77.08
2024-01-16T13:08:19.098Z,77.31
2024-01-16T13:10:45.863Z,76.98
2024-01-16T13:13:13.551Z,76.57
2024-01-16T13:15:40.561Z,76.39
2024-01-16T13:18:18.756Z,76.48
2024-01-16T13:20:45.534Z,76.60
2024-01-16T13:23:13.863Z,76.11
2024-01-16T13:25:40.965Z,75.97
2024-01-16T13:28:07.589Z,75.94
2024-01-16T13:30:43.783Z,76.31
2024-01-16T13:33:16.519Z,76.70
2024-01-16T13:35:45.731Z,77.50
2024-01-16T13:38:13.837Z,77.93
2024-01-16T13:40:40.949Z,78.02
2024-01-16T13:43:07.676Z,77.35
2024-01-16T13:45:34.614Z,77.49
2024-01-16T13:48:01.356Z,77.41
2024-01-16T13:50:29.894Z,77.51
2024-01-16T13:52:56.641Z,77.26
2024-01-16T13:55:23.659Z,77.04
2024-01-16T13:57:51.287Z,76.94
2024-01-16T14:00:20.858Z,76.94
2024-01-16T14:02:48.839Z,76.95
2024-01-16T14:05:17.225Z,77.49
2024-01-16T14:07:46.593Z,77.90
2024-01-16T14:10:13.979Z,77.72
2024-01-16T14:12:41.752Z,78.05
2024-01-16T14:15:11.002Z,78.12
2024-01-16T14:17:39.360Z,78.46
2024-01-16T14:20:07.135Z,78.33
2024-01-16T14:22:33.863Z,78.40
2024-01-16T14:25:01.827Z,79.10
2024-01-16T14:27:28.430Z,79.75
2024-01-16T14:29:55.148Z,80.04
2024-01-16T14:32:21.895Z,80.14
2024-01-16T14:34:48.552Z,80.24
2024-01-16T14:37:15.789Z,80.73
2024-01-16T14:39:42.488Z,80.48
2024-01-16T14:42:10.603Z,80.61
2024-01-16T14:44:40.246Z,80.85
2024-01-16T14:47:07.035Z,81.14
2024-01-16T14:49:33.867Z,81.60
2024-01-16T14:52:00.636Z,81.94
2024-01-16T14:54:27.596Z,82.64
2024-01-16T14:56:54.267Z,82.34
2024-01-16T14:59:22.252Z,82.44
2024-01-16T15:01:48.941Z,82.76
2024-01-16T15:04:15.546Z,82.82
2024-01-16T15:06:42.526Z,83.11
2024-01-16T15:09:09.408Z,83.58
2024-01-16T15:11:36.065Z,84.13
2024-01-16T15:14:02.741Z,84.21
2024-01-16T15:16:31.463Z,84.50
2024-01-16T15:18:58.600Z,84.67
2024-01-16T15:21:25.311Z,85.14
2024-01-16T15:23:51.984Z,85.78
2024-01-16T15:26:18.622Z,85.80
2024-01-16T15:28:46.669Z,87.15
2024-01-16T15:31:14.420Z,87.46
2024-01-16T15:33:42.795Z,88.03
2024-01-16T15:36:09.713Z,88.72
2024-01-16T15:38:36.464Z,88.63
2024-01-16T15:41:03.368Z,88.60
2024-01-16T15:43:29.985Z,89.28
2024-01-16T15:45:56.645Z,88.96
2024-01-16T15:48:23.493Z,89.47
2024-01-16T15:50:51.587Z,89.46
2024-01-16T15:53:18.409Z,89.04
2024-01-16T15:55:45.237Z,89.24
2024-01-16T15:58:11.954Z,89.21
2024-01-16T16:00:39.191Z,89.13
2024-01-16T16:03:06.558Z,89.06
2024-01-16T16:05:33.663Z,89.50
2024-01-16T16:08:02.048Z,89.49
2024-01-16T16:10:28.758Z,89.39
2024-01-16T16:12:55.747Z,89.35
2024-01-16T16:15:22.968Z,89.44
2024-01-16T16:17:50.183Z,89.72
2024-01-16T16:20:16.996Z,89.43
2024-01-16T16:22:45.973Z,89.41
2024-01-16T16:25:15.551Z,89.22
2024-01-16T16:27:42.278Z,88.91
2024-01-16T16:30:09.794Z,89.35
2024-01-16T16:32:36.712Z,89.15
2024-01-16T16:35:05.030Z,89.08
2024-01-16T16:37:31.666Z,89.02
2024-01-16T16:39:58.332Z,89.34
2024-01-16T16:42:26.330Z,89.21
2024-01-16T16:44:53.030Z,88.97
2024-01-16T16:47:19.881Z,89.03
2024-01-16T16:49:47.108Z,89.36
2024-01-16T16:52:13.972Z,89.26
2024-01-16T16:54:40.701Z,88.80
2024-01-16T16:57:07.343Z,89.09
2024-01-16T16:59:35.517Z,88.95
2024-01-16T17:02:02.168Z,88.50
2024-01-16T17:04:29.015Z,88.16
2024-01-16T17:06:56.141Z,88.16
2024-01-16T17:09:23.182Z,87.90
2024-01-16T17:11:49.861Z,87.61
2024-01-16T17:14:16.839Z,87.42
2024-01-16T17:16:45.374Z,86.97
2024-01-16T17:19:12.487Z,86.90
2024-01-16T17:21:39.816Z,87.06
2024-01-16T17:24:07.180Z,86.61
2024-01-16T17:26:35.342Z,86.83
2024-01-16T17:29:02.286Z,86.52
2024-01-16T17:31:29.229Z,86.69
2024-01-16T17:33:58.300Z,86.32
2024-01-16T17:36:25.409Z,86.32
2024-01-16T17:38:52.507Z,86.11
2024-01-16T17:41:19.185Z,86.12
2024-01-16T17:43:45.884Z,86.28
2024-01-16T17:46:12.506Z,86.41
2024-01-16T17:48:39.724Z,85.93
2024-01-16T17:51:09.010Z,85.46
2024-01-16T17:53:38.920Z,85.59
2024-01-16T17:56:08.085Z,85.24
2024-01-16T17:58:34.727Z,85.22
2024-01-16T18:01:01.411Z,84.77
2024-01-16T18:03:37.093Z,84.63
2024-01-16T18:06:10.360Z,84.67
2024-01-16T18:08:37.196Z,84.93
2024-01-16T18:11:04.159Z,84.94
2024-01-16T18:13:30.975Z,84.67
2024-01-16T18:15:58.266Z,84.92
2024-01-16T18:18:25.003Z,84.88
2024-01-16T18:20:51.861Z,85.00
2024-01-16T18:23:19.964Z,84.78
2024-01-16T18:25:46.587Z,85.23
2024-01-16T18:28:13.321Z,85.09
2024-01-16T18:30:40.241Z,85.01
2024-01-16T18:33:08.746Z,85.41
2024-01-16T18:35:35.445Z,84.89
2024-01-16T18:38:04.290Z,85.60
2024-01-16T18:40:32.274Z,85.29
2024-01-16T18:42:59.759Z,84.96
2024-01-16T18:45:26.450Z,85.23
2024-01-16T18:47:53.204Z,85.07
2024-01-16T18:50:19.924Z,85.14
2024-01-16T18:52:46.823Z,85.35
2024-01-16T18:55:13.455Z,85.12
2024-01-16T18:57:42.397Z,85.13
2024-01-16T19:00:11.405Z,85.53
2024-01-16T19:02:38.047Z,85.44
2024-01-16T19:05:05.537Z,85.02
2024-01-16T19:07:32.129Z,85.44
2024-01-16T19:09:58.760Z,85.17
2024-01-16T19:12:25.391Z,85.44
2024-01-16T19:14:53.642Z,85.03
2024-01-16T19:17:20.424Z,85.52
2024-01-16T19:19:47.282Z,85.19
2024-01-16T19:22:14.007Z,85.52
2024-01-16T19:24:40.614Z,84.84
2024-01-16T19:27:07.382Z,85.52
2024-01-16T19:29:34.124Z,85.58
2024-01-16T19:32:02.276Z,85.16
2024-01-16T19:34:28.965Z,85.21
2024-01-16T19:36:55.745Z,85.65
2024-01-16T19:39:22.462Z,85.01
2024-01-16T19:41:49.304Z,84.83
2024-01-16T19:44:16.092Z,84.53
2024-01-16T19:46:43.620Z,84.83
2024-01-16T19:49:11.927Z,85.21
2024-01-16T19:51:39.576Z,85.00
2024-01-16T19:54:06.483Z,84.22
2024-01-16T19:56:35.341Z,84.48
2024-01-16T19:59:02.301Z,84.12
2024-01-16T20:01:29.411Z,84.44
2024-01-16T20:03:56.342Z,84.01
2024-01-16T20:06:24.480Z,83.99
2024-01-16T20:08:51.948Z,83.88
2024-01-16T20:11:27.569Z,84.16
2024-01-16T20:13:55.486Z,83.79
2024-01-16T20:16:22.459Z,83.66
2024-01-16T20:18:49.580Z,83.03
2024-01-16T20:21:19.160Z,83.09
2024-01-16T20:23:47.477Z,83.14
2024-01-16T20:26:17.144Z,83.49
2024-01-16T20:28:43.805Z,83.54
2024-01-16T20:31:11.373Z,83.52
2024-01-16T20:33:38.283Z,83.18
2024-01-16T20:36:05.899Z,83.26
2024-01-16T20:38:32.657Z,82.78
2024-01-16T20:41:00.779Z,82.67
2024-01-16T20:43:27.406Z,82.25
2024-01-16T20:45:54.034Z,82.62
2024-01-16T20:48:20.795Z,82.30
2024-01-16T20:50:47.561Z,82.68
2024-01-16T20:53:16.512Z,82.32
2024-01-16T20:55:43.151Z,82.47
2024-01-16T20:58:11.165Z,82.40
2024-01-16T21:00:37.800Z,82.34
2024-01-16T21:03:05.412Z,82.45
2024-01-16T21:05:32.202Z,82.26
2024-01-16T21:07:59.153Z,82.63
2024-01-16T21:10:25.880Z,82.37
2024-01-16T21:12:55.277Z,82.68
2024-01-16T21:15:23.507Z,82.35
2024-01-16T21:17:50.354Z,82.42
2024-01-16T21:20:17.011Z,82.19
2024-01-16T21:22:43.746Z,82.18
2024-01-16T21:25:10.384Z,81.60
2024-01-16T21:27:38.385Z,82.10
2024-01-16T21:30:09.931Z,81.58
2024-01-16T21:32:40.920Z,81.77
2024-01-16T21:35:08.389Z,81.56
2024-01-16T21:37:35.000Z,82.08
2024-01-16T21:40:01.958Z,81.68
2024-01-16T21:42:28.691Z,81.91
2024-01-16T21:44:55.448Z,82.15
2024-01-16T21:47:22.210Z,82.59
2024-01-16T21:49:52.594Z,82.80
2024-01-16T21:52:20.840Z,82.55
2024-01-16T21:54:47.500Z,82.70
2024-01-16T21:57:14.261Z,82.34
2024-01-16T21:59:40.882Z,82.04
2024-01-16T22:02:07.845Z,82.24
2024-01-16T22:04:34.657Z,82.38
2024-01-16T22:07:05.107Z,83.11
2024-01-16T22:09:31.794Z,82.78
2024-01-16T22:11:59.629Z,82.90
2024-01-16T22:14:26.637Z,83.12
2024-01-16T22:16:53.512Z,83.31
2024-01-16T22:19:20.330Z,82.94
2024-01-16T22:21:47.301Z,82.66
2024-01-16T22:24:15.252Z,83.06
2024-01-16T22:26:41.986Z,83.05
2024-01-16T22:29:08.853Z,83.47
2024-01-16T22:31:41.093Z,83.50
2024-01-16T22:34:08.092Z,83.35
2024-01-16T22:36:39.090Z,82.51
2024-01-16T22:39:05.724Z,82.92
2024-01-16T22:41:34.880Z,82.19
2024-01-16T22:44:01.637Z,82.26
2024-01-16T22:46:28.496Z,81.76
2024-01-16T22:48:55.425Z,81.82
2024-01-16T22:51:22.295Z,81.57
2024-01-16T22:53:49.001Z,81.83
2024-01-16T22:56:15.595Z,81.62
2024-01-16T22:58:43.649Z,81.09
2024-01-16T23:01:10.373Z,80.88
2024-01-16T23:03:37.107Z,81.27
2024-01-16T23:06:04.087Z,80.85
2024-01-16T23:08:30.778Z,81.34
2024-01-16T23:10:57.786Z,81.24
2024-01-16T23:13:25.335Z,81.10
2024-01-16T23:15:53.370Z,81.47
2024-01-16T23:18:20.196Z,81.57
2024-01-16T23:20:47.794Z,81.54
2024-01-16T23:23:14.988Z,82.09
2024-01-16T23:25:45.579Z,82.18
2024-01-16T23:28:12.345Z,81.98
2024-01-16T23:30:40.708Z,82.37
2024-01-16T23:33:09.200Z,82.58
2024-01-16T23:35:35.951Z,82.71
2024-01-16T23:38:02.627Z,82.56
2024-01-16T23:40:29.279Z,82.48
2024-01-16T23:42:55.898Z,82.57
2024-01-16T23:45:27.839Z,82.92
2024-01-16T23:47:59.918Z,82.81
2024-01-16T23:50:28.086Z,83.28
2024-01-16T23:52:54.826Z,83.26
2024-01-16T23:55:21.634Z,83.15
2024-01-16T23:57:48.334Z,83.52
